Time,TemperatureF,DewpointF,PressureIn,WindDirection,WindDirectionDegrees,WindSpeedMPH,WindSpeedGustMPH,Humidity,HourlyPrecipIn,Conditions,Clouds,dailyrainin,SoftwareType,DateUTC
2013-03-14 00:00:00,36.9,19.0,30.26,NW,316,4.0,4.0,48,0.00,,,0.00,Wunderground v.1.15,2013-03-14 04:00:00,
2013-03-14 00:05:00,36.7,18.3,30.26,WNW,284,4.0,11.0,47,0.00,,,0.00,Wunderground v.1.15,2013-03-14 04:05:00,
2013-03-14 00:10:00,36.6,18.7,30.26,NW,315,4.0,11.0,48,0.00,,,0.00,Wunderground v.1.15,2013-03-14 04:10:00,
2013-03-14 00:20:00,36.5,18.2,30.26,NW,305,4.0,4.0,47,0.00,,,0.00,Wunderground v.1.15,2013-03-14 04:20:00,
2013-03-14 00:25:00,36.3,18.5,30.27,WNW,302,5.0,5.0,48,0.00,,,0.00,Wunderground v.1.15,2013-03-14 04:25:00,
2013-03-14 00:30:00,36.2,18.4,30.27,WNW,284,4.0,4.0,48,0.00,,,0.00,Wunderground v.1.15,2013-03-14 04:30:00,
2013-03-14 00:40:00,35.9,18.6,30.27,NNW,328,3.0,5.0,49,0.00,,,0.00,Wunderground v.1.15,2013-03-14 04:40:00,
2013-03-14 00:50:00,35.6,18.3,30.27,NW,311,3.0,3.0,49,0.00,,,0.00,Wunderground v.1.15,2013-03-14 04:50:00,
2013-03-14 00:55:00,35.5,18.2,30.27,NNW,329,3.0,3.0,49,0.00,,,0.00,Wunderground v.1.15,2013-03-14 04:55:00,
2013-03-14 01:00:00,35.4,18.1,30.28,NW,315,3.0,3.0,49,0.00,,,0.00,Wunderground v.1.15,2013-03-14 05:00:00,
2013-03-14 01:10:00,35.3,17.5,30.28,WNW,295,3.0,13.0,48,0.00,,,0.00,Wunderground v.1.15,2013-03-14 05:10:00,
2013-03-14 01:20:00,35.1,17.4,30.28,NW,315,3.0,4.0,48,0.00,,,0.00,Wunderground v.1.15,2013-03-14 05:20:00,
2013-03-14 01:30:00,34.7,17.5,30.28,NNW,332,2.0,3.0,49,0.00,,,0.00,Wunderground v.1.15,2013-03-14 05:30:00,
2013-03-14 01:35:00,34.5,17.3,30.28,WNW,290,2.0,3.0,49,0.00,,,0.00,Wunderground v.1.15,2013-03-14 05:35:00,
2013-03-14 01:45:00,34.4,16.7,30.29,WNW,298,3.0,4.0,48,0.00,,,0.00,Wunderground v.1.15,2013-03-14 05:45:00,
2013-03-14 01:55:00,34.3,16.6,30.29,WNW,295,3.0,5.0,48,0.00,,,0.00,Wunderground v.1.15,2013-03-14 05:55:00,
2013-03-14 02:05:00,33.9,16.3,30.29,NE,37,3.0,9.0,48,0.00,,,0.00,Wunderground v.1.15,2013-03-14 06:05:00,
2013-03-14 02:10:00,33.8,15.7,30.29,WNW,300,1.0,8.0,47,0.00,,,0.00,Wunderground v.1.15,2013-03-14 06:10:00,
2013-03-14 02:20:00,33.7,15.6,30.29,NNE,25,3.0,3.0,47,0.00,,,0.00,Wunderground v.1.15,2013-03-14 06:20:00,
2013-03-14 02:30:00,33.2,16.1,30.29,WNW,286,0.0,1.0,49,0.00,,,0.00,Wunderground v.1.15,2013-03-14 06:30:00,
2013-03-14 02:40:00,32.7,17.0,30.29,WNW,300,1.0,1.0,52,0.00,,,0.00,Wunderground v.1.15,2013-03-14 06:40:00,
2013-03-14 02:50:00,32.5,16.8,30.30,NW,318,1.0,1.0,52,0.00,,,0.00,Wunderground v.1.15,2013-03-14 06:50:00,
2013-03-14 03:00:00,32.3,16.2,30.30,WNW,283,1.0,1.0,51,0.00,,,0.00,Wunderground v.1.15,2013-03-14 07:00:00,
2013-03-14 03:10:00,31.4,17.1,30.29,WNW,283,1.0,1.0,55,0.00,,,0.00,Wunderground v.1.15,2013-03-14 07:10:00,
2013-03-14 03:15:00,31.0,16.7,30.29,WNW,298,0.0,1.0,55,0.00,,,0.00,Wunderground v.1.15,2013-03-14 07:15:00,
2013-03-14 03:20:00,31.0,16.7,30.30,WNW,298,0.0,1.0,55,0.00,,,0.00,Wunderground v.1.15,2013-03-14 07:20:00,
2013-03-14 03:25:00,30.9,17.0,30.30,NW,307,0.0,1.0,56,0.00,,,0.00,Wunderground v.1.15,2013-03-14 07:25:00,
2013-03-14 03:30:00,30.3,18.5,30.29,WNW,298,0.0,0.0,61,0.00,,,0.00,Wunderground v.1.15,2013-03-14 07:30:00,
2013-03-14 03:40:00,29.6,18.5,30.29,WNW,282,0.0,0.0,63,0.00,,,0.00,Wunderground v.1.15,2013-03-14 07:40:00,
2013-03-14 03:45:00,29.1,18.4,30.29,NW,307,0.0,0.0,64,0.00,,,0.00,Wunderground v.1.15,2013-03-14 07:45:00,
2013-03-14 03:50:00,28.6,18.0,30.29,WNW,296,0.0,0.0,64,0.00,,,0.00,Wunderground v.1.15,2013-03-14 07:50:00,
2013-03-14 04:00:00,28.5,17.9,30.29,West,280,0.0,0.0,64,0.00,,,0.00,Wunderground v.1.15,2013-03-14 08:00:00,
2013-03-14 04:05:00,28.8,17.0,30.29,WNW,287,0.0,3.0,61,0.00,,,0.00,Wunderground v.1.15,2013-03-14 08:05:00,
2013-03-14 04:15:00,29.0,17.2,30.29,NW,305,0.0,3.0,61,0.00,,,0.00,Wunderground v.1.15,2013-03-14 08:15:00,
2013-03-14 06:10:00,28.0,17.4,30.31,WNW,294,1.0,1.0,64,0.00,,,0.00,Wunderground v.1.15,2013-03-14 10:10:00,
2013-03-14 06:20:00,28.8,17.4,30.32,WNW,292,2.0,2.0,62,0.00,,,0.00,Wunderground v.1.15,2013-03-14 10:20:00,
2013-03-14 06:25:00,29.2,17.0,30.32,NW,304,3.0,3.0,60,0.00,,,0.00,Wunderground v.1.15,2013-03-14 10:25:00,
2013-03-14 06:35:00,29.3,17.1,30.32,NW,322,1.0,3.0,60,0.00,,,0.00,Wunderground v.1.15,2013-03-14 10:35:00,
2013-03-14 06:45:00,29.0,17.6,30.32,West,281,1.0,2.0,62,0.00,,,0.00,Wunderground v.1.15,2013-03-14 10:45:00,
2013-03-14 06:55:00,29.2,17.4,30.33,West,264,1.0,1.0,61,0.00,,,0.00,Wunderground v.1.15,2013-03-14 10:55:00,
2013-03-14 07:00:00,29.1,18.8,30.33,West,264,0.0,0.0,65,0.00,,,0.00,Wunderground v.1.15,2013-03-14 11:00:00,
2013-03-14 07:05:00,28.7,19.1,30.33,West,265,0.0,4.0,67,0.00,,,0.00,Wunderground v.1.15,2013-03-14 11:05:00,
2013-03-14 07:10:00,28.1,19.6,30.33,SW,214,0.0,4.0,70,0.00,,,0.00,Wunderground v.1.15,2013-03-14 11:10:00,
2013-03-14 07:20:00,27.4,18.2,30.33,WNW,285,1.0,2.0,68,0.00,,,0.00,Wunderground v.1.15,2013-03-14 11:20:00,
2013-03-14 07:30:00,27.0,19.2,30.34,NW,307,0.0,2.0,72,0.00,,,0.00,Wunderground v.1.15,2013-03-14 11:30:00,
2013-03-14 07:35:00,27.2,18.0,30.33,WNW,285,1.0,4.0,68,0.00,,,0.00,Wunderground v.1.15,2013-03-14 11:35:00,
2013-03-14 07:45:00,28.5,17.9,30.35,West,280,1.0,2.0,64,0.00,,,0.00,Wunderground v.1.15,2013-03-14 11:45:00,
2013-03-14 07:55:00,28.3,18.0,30.35,West,278,0.0,0.0,65,0.00,,,0.00,Wunderground v.1.15,2013-03-14 11:55:00,
2013-03-14 08:05:00,28.6,17.6,30.35,West,276,1.0,4.0,63,0.00,,,0.00,Wunderground v.1.15,2013-03-14 12:05:00,
2013-03-14 08:10:00,29.2,17.0,30.35,WNW,301,1.0,1.0,60,0.00,,,0.00,Wunderground v.1.15,2013-03-14 12:10:00,
2013-03-14 08:20:00,30.4,18.2,30.36,WNW,293,3.0,3.0,60,0.00,,,0.00,Wunderground v.1.15,2013-03-14 12:20:00,
2013-03-14 08:25:00,30.9,17.8,30.36,NW,307,2.0,3.0,58,0.00,,,0.00,Wunderground v.1.15,2013-03-14 12:25:00,
2013-03-14 08:35:00,31.7,18.2,30.35,NNW,338,2.0,3.0,57,0.00,,,0.00,Wunderground v.1.15,2013-03-14 12:35:00,
2013-03-14 08:40:00,32.2,17.8,30.35,WNW,300,3.0,3.0,55,0.00,,,0.00,Wunderground v.1.15,2013-03-14 12:40:00,
2013-03-14 08:50:00,33.3,18.9,30.36,WNW,300,2.0,3.0,55,0.00,,,0.00,Wunderground v.1.15,2013-03-14 12:50:00,
2013-03-14 08:55:00,33.5,18.6,30.35,NNE,15,3.0,3.0,54,0.00,,,0.00,Wunderground v.1.15,2013-03-14 12:55:00,
2013-03-14 09:00:00,33.7,18.8,30.35,NNW,330,4.0,4.0,54,0.00,,,0.00,Wunderground v.1.15,2013-03-14 13:00:00,
2013-03-14 09:10:00,34.2,17.9,30.36,NNW,328,4.0,6.0,51,0.00,,,0.00,Wunderground v.1.15,2013-03-14 13:10:00,
2013-03-14 09:20:00,34.7,17.9,30.36,NW,308,4.0,4.0,50,0.00,,,0.00,Wunderground v.1.15,2013-03-14 13:20:00,
2013-03-14 09:25:00,35.0,18.7,30.37,NW,312,4.0,4.0,51,0.00,,,0.00,Wunderground v.1.15,2013-03-14 13:25:00,
2013-03-14 09:35:00,35.5,18.7,30.36,WNW,295,4.0,5.0,50,0.00,,,0.00,Wunderground v.1.15,2013-03-14 13:35:00,
2013-03-14 09:40:00,35.6,18.3,30.37,East,79,4.0,4.0,49,0.00,,,0.00,Wunderground v.1.15,2013-03-14 13:40:00,
2013-03-14 09:50:00,35.8,18.0,30.37,WNW,284,5.0,5.0,48,0.00,,,0.00,Wunderground v.1.15,2013-03-14 13:50:00,
2013-03-14 10:00:00,35.9,18.6,30.37,West,276,6.0,6.0,49,0.00,,,0.00,Wunderground v.1.15,2013-03-14 14:00:00,
2013-03-14 10:05:00,36.2,19.3,30.38,WNW,300,6.0,8.0,50,0.00,,,0.00,Wunderground v.1.15,2013-03-14 14:05:00,
2013-03-14 10:10:00,36.5,19.1,30.38,West,271,6.0,6.0,49,0.00,,,0.00,Wunderground v.1.15,2013-03-14 14:10:00,
2013-03-14 10:20:00,36.9,19.0,30.38,NNE,32,4.0,5.0,48,0.00,,,0.00,Wunderground v.1.15,2013-03-14 14:20:00,
2013-03-14 10:25:00,37.1,18.7,30.38,NW,308,4.0,5.0,47,0.00,,,0.00,Wunderground v.1.15,2013-03-14 14:25:00,
2013-03-14 10:30:00,37.1,19.2,30.38,WNW,295,5.0,5.0,48,0.00,,,0.00,Wunderground v.1.15,2013-03-14 14:30:00,
2013-03-14 10:40:00,37.8,18.8,30.38,NW,304,5.0,6.0,46,0.00,,,0.00,Wunderground v.1.15,2013-03-14 14:40:00,
2013-03-14 10:45:00,38.3,19.3,30.38,WNW,284,5.0,6.0,46,0.00,,,0.00,Wunderground v.1.15,2013-03-14 14:45:00,
2013-03-14 10:55:00,38.4,20.4,30.38,NW,315,5.0,6.0,48,0.00,,,0.00,Wunderground v.1.15,2013-03-14 14:55:00,
2013-03-14 11:05:00,38.5,19.5,30.38,NNW,327,6.0,14.0,46,0.00,,,0.00,Wunderground v.1.15,2013-03-14 15:05:00,
2013-03-14 11:15:00,39.9,20.3,30.38,NNW,340,3.0,5.0,45,0.00,,,0.00,Wunderground v.1.15,2013-03-14 15:15:00,
2013-03-14 11:20:00,40.2,20.0,30.38,West,280,3.0,4.0,44,0.00,,,0.00,Wunderground v.1.15,2013-03-14 15:20:00,
2013-03-14 11:30:00,40.1,20.4,30.37,NNE,32,5.0,5.0,45,0.00,,,0.00,Wunderground v.1.15,2013-03-14 15:30:00,
2013-03-14 11:40:00,41.4,21.6,30.37,WNW,295,2.0,2.0,45,0.00,,,0.00,Wunderground v.1.15,2013-03-14 15:40:00,
2013-03-14 11:50:00,41.2,19.8,30.37,WNW,295,5.0,5.0,42,0.00,,,0.00,Wunderground v.1.15,2013-03-14 15:50:00,
2013-03-14 12:00:00,41.5,19.5,30.36,NW,307,4.0,8.0,41,0.00,,,0.00,Wunderground v.1.15,2013-03-14 16:00:00,
2013-03-14 12:10:00,42.4,20.3,30.36,WNW,291,3.0,12.0,41,0.00,,,0.00,Wunderground v.1.15,2013-03-14 16:10:00,
2013-03-14 12:20:00,42.5,19.8,30.35,WNW,293,4.0,4.0,40,0.00,,,0.00,Wunderground v.1.15,2013-03-14 16:20:00,
2013-03-14 12:25:00,42.8,21.8,30.35,NNE,15,4.0,4.0,43,0.00,,,0.00,Wunderground v.1.15,2013-03-14 16:25:00,
2013-03-14 12:35:00,43.6,20.8,30.35,East,89,2.0,4.0,40,0.00,,,0.00,Wunderground v.1.15,2013-03-14 16:35:00,
2013-03-14 12:45:00,44.0,18.7,30.34,WNW,300,2.0,3.0,36,0.00,,,0.00,Wunderground v.1.15,2013-03-14 16:45:00,
2013-03-14 12:55:00,44.1,20.1,30.35,NW,304,4.0,8.0,38,0.00,,,0.00,Wunderground v.1.15,2013-03-14 16:55:00,
2013-03-14 13:00:00,43.7,19.7,30.34,WNW,293,6.0,6.0,38,0.00,,,0.00,Wunderground v.1.15,2013-03-14 17:00:00,
2013-03-14 13:10:00,44.3,20.3,30.34,NNW,339,4.0,4.0,38,0.00,,,0.00,Wunderground v.1.15,2013-03-14 17:10:00,
2013-03-14 13:15:00,44.8,20.7,30.33,WSW,256,3.0,6.0,38,0.00,,,0.00,Wunderground v.1.15,2013-03-14 17:15:00,
2013-03-14 13:25:00,44.9,20.8,30.34,WNW,300,4.0,6.0,38,0.00,,,0.00,Wunderground v.1.15,2013-03-14 17:25:00,
2013-03-14 13:35:00,45.2,21.7,30.34,West,274,6.0,9.0,39,0.00,,,0.00,Wunderground v.1.15,2013-03-14 17:35:00,
2013-03-14 13:40:00,45.4,20.0,30.33,SE,129,4.0,4.0,36,0.00,,,0.00,Wunderground v.1.15,2013-03-14 17:40:00,
2013-03-14 13:50:00,46.1,19.9,30.33,NW,305,5.0,5.0,35,0.00,,,0.00,Wunderground v.1.15,2013-03-14 17:50:00,
2013-03-14 13:55:00,46.1,20.6,30.33,WSW,253,6.0,6.0,36,0.00,,,0.00,Wunderground v.1.15,2013-03-14 17:55:00,
2013-03-14 14:05:00,46.5,22.2,30.32,NE,37,5.0,14.0,38,0.00,,,0.00,Wunderground v.1.15,2013-03-14 18:05:00,
2013-03-14 14:10:00,47.1,22.1,30.32,NW,326,4.0,14.0,37,0.00,,,0.00,Wunderground v.1.15,2013-03-14 18:10:00,
2013-03-14 14:20:00,47.3,22.9,30.31,WNW,283,6.0,6.0,38,0.00,,,0.00,Wunderground v.1.15,2013-03-14 18:20:00,
2013-03-14 14:30:00,47.4,20.4,30.30,WNW,293,5.0,5.0,34,0.00,,,0.00,Wunderground v.1.15,2013-03-14 18:30:00,
2013-03-14 14:40:00,47.8,21.4,30.30,West,274,5.0,5.0,35,0.00,,,0.00,Wunderground v.1.15,2013-03-14 18:40:00,
2013-03-14 14:45:00,48.0,21.6,30.29,NW,304,5.0,5.0,35,0.00,,,0.00,Wunderground v.1.15,2013-03-14 18:45:00,
2013-03-14 14:55:00,48.6,24.1,30.29,WNW,286,5.0,5.0,38,0.00,,,0.00,Wunderground v.1.15,2013-03-14 18:55:00,
2013-03-14 15:05:00,49.0,20.4,30.29,NNW,343,4.0,12.0,32,0.00,,,0.00,Wunderground v.1.15,2013-03-14 19:05:00,
2013-03-14 15:10:00,49.2,22.0,30.29,WNW,293,6.0,12.0,34,0.00,,,0.00,Wunderground v.1.15,2013-03-14 19:10:00,
2013-03-14 15:20:00,49.9,22.6,30.28,WNW,297,4.0,5.0,34,0.00,,,0.00,Wunderground v.1.15,2013-03-14 19:20:00,
2013-03-14 15:30:00,50.2,21.4,30.28,West,273,5.0,5.0,32,0.00,,,0.00,Wunderground v.1.15,2013-03-14 19:30:00,
2013-03-14 15:40:00,50.8,22.0,30.28,West,259,3.0,3.0,32,0.00,,,0.00,Wunderground v.1.15,2013-03-14 19:40:00,
2013-03-14 15:45:00,51.3,22.4,30.27,WNW,297,4.0,4.0,32,0.00,,,0.00,Wunderground v.1.15,2013-03-14 19:45:00,
2013-03-14 15:55:00,51.1,20.7,30.27,WNW,293,5.0,5.0,30,0.00,,,0.00,Wunderground v.1.15,2013-03-14 19:55:00,
2013-03-14 16:00:00,51.1,19.9,30.28,West,274,5.0,5.0,29,0.00,,,0.00,Wunderground v.1.15,2013-03-14 20:00:00,
2013-03-14 16:10:00,50.9,20.5,30.27,NNW,342,4.0,4.0,30,0.00,,,0.00,Wunderground v.1.15,2013-03-14 20:10:00,
2013-03-14 16:15:00,51.0,20.6,30.27,WNW,297,4.0,6.0,30,0.00,,,0.00,Wunderground v.1.15,2013-03-14 20:15:00,
2013-03-14 16:25:00,51.5,21.0,30.27,WNW,297,6.0,6.0,30,0.00,,,0.00,Wunderground v.1.15,2013-03-14 20:25:00,
2013-03-14 16:30:00,51.6,20.3,30.26,NNE,32,7.0,7.0,29,0.00,,,0.00,Wunderground v.1.15,2013-03-14 20:30:00,
2013-03-14 16:40:00,51.7,17.9,30.26,NW,304,5.0,5.0,26,0.00,,,0.00,Wunderground v.1.15,2013-03-14 20:40:00,
2013-03-14 16:45:00,52.4,20.2,30.26,WNW,288,4.0,7.0,28,0.00,,,0.00,Wunderground v.1.15,2013-03-14 20:45:00,
2013-03-14 16:55:00,52.1,19.1,30.26,WNW,301,8.0,13.0,27,0.00,,,0.00,Wunderground v.1.15,2013-03-14 20:55:00,
2013-03-14 17:00:00,52.2,19.2,30.26,NW,304,7.0,7.0,27,0.00,,,0.00,Wunderground v.1.15,2013-03-14 21:00:00,
2013-03-14 17:10:00,52.1,20.8,30.25,NW,304,6.0,6.0,29,0.00,,,0.00,Wunderground v.1.15,2013-03-14 21:10:00,
2013-03-14 17:15:00,52.2,18.3,30.25,West,266,4.0,6.0,26,0.00,,,0.00,Wunderground v.1.15,2013-03-14 21:15:00,
2013-03-14 17:25:00,52.1,18.2,30.25,NW,310,5.0,5.0,26,0.00,,,0.00,Wunderground v.1.15,2013-03-14 21:25:00,
2013-03-14 17:30:00,51.8,18.8,30.25,NW,321,6.0,6.0,27,0.00,,,0.00,Wunderground v.1.15,2013-03-14 21:30:00,
2013-03-14 17:40:00,51.7,17.0,30.25,WNW,293,5.0,7.0,25,0.00,,,0.00,Wunderground v.1.15,2013-03-14 21:40:00,
2013-03-14 17:45:00,51.5,19.4,30.25,West,264,6.0,7.0,28,0.00,,,0.00,Wunderground v.1.15,2013-03-14 21:45:00,
2013-03-14 17:55:00,51.3,18.4,30.25,NW,319,6.0,7.0,27,0.00,,,0.00,Wunderground v.1.15,2013-03-14 21:55:00,
2013-03-14 18:00:00,51.3,17.5,30.25,WNW,288,5.0,5.0,26,0.00,,,0.00,Wunderground v.1.15,2013-03-14 22:00:00,
2013-03-14 18:10:00,51.4,17.6,30.25,WNW,289,4.0,13.0,26,0.00,,,0.00,Wunderground v.1.15,2013-03-14 22:10:00,
2013-03-14 18:15:00,51.0,19.0,30.25,NW,307,3.0,13.0,28,0.00,,,0.00,Wunderground v.1.15,2013-03-14 22:15:00,
2013-03-14 18:20:00,50.8,18.0,30.25,WNW,293,3.0,5.0,27,0.00,,,0.00,Wunderground v.1.15,2013-03-14 22:20:00,
2013-03-14 18:30:00,50.5,16.8,30.25,WNW,293,5.0,5.0,26,0.00,,,0.00,Wunderground v.1.15,2013-03-14 22:30:00,
2013-03-14 18:40:00,50.6,17.8,30.25,NNW,340,2.0,4.0,27,0.00,,,0.00,Wunderground v.1.15,2013-03-14 22:40:00,
2013-03-14 18:45:00,50.2,17.5,30.25,WNW,284,3.0,4.0,27,0.00,,,0.00,Wunderground v.1.15,2013-03-14 22:45:00,
2013-03-14 18:55:00,49.5,19.3,30.25,NNE,25,2.0,3.0,30,0.00,,,0.00,Wunderground v.1.15,2013-03-14 22:55:00,
2013-03-14 19:05:00,48.6,20.0,30.25,NW,323,1.0,12.0,32,0.00,,,0.00,Wunderground v.1.15,2013-03-14 23:05:00,
2013-03-14 19:15:00,46.7,22.4,30.25,WNW,288,0.0,1.0,38,0.00,,,0.00,Wunderground v.1.15,2013-03-14 23:15:00,
2013-03-14 19:20:00,45.2,22.9,30.26,WNW,288,0.0,0.0,41,0.00,,,0.00,Wunderground v.1.15,2013-03-14 23:20:00,
2013-03-14 19:30:00,43.0,24.1,30.26,WNW,288,0.0,0.0,47,0.00,,,0.00,Wunderground v.1.15,2013-03-14 23:30:00,
2013-03-14 19:35:00,42.0,25.6,30.26,WNW,288,0.0,0.0,52,0.00,,,0.00,Wunderground v.1.15,2013-03-14 23:35:00,
2013-03-14 19:45:00,40.2,24.9,30.26,WNW,288,0.0,1.0,54,0.00,,,0.00,Wunderground v.1.15,2013-03-14 23:45:00,
2013-03-14 19:55:00,38.7,24.8,30.26,WNW,288,0.0,0.0,57,0.00,,,0.00,Wunderground v.1.15,2013-03-14 23:55:00,
2013-03-14 20:05:00,37.5,24.1,30.26,WNW,288,0.0,9.0,58,0.00,,,0.00,Wunderground v.1.15,2013-03-15 00:05:00,
2013-03-14 20:10:00,36.9,22.7,30.26,WNW,288,0.0,9.0,56,0.00,,,0.00,Wunderground v.1.15,2013-03-15 00:10:00,
2013-03-14 20:15:00,36.5,23.1,30.26,WNW,288,0.0,9.0,58,0.00,,,0.00,Wunderground v.1.15,2013-03-15 00:15:00,
2013-03-14 20:25:00,35.7,22.8,30.26,WNW,288,0.0,0.0,59,0.00,,,0.00,Wunderground v.1.15,2013-03-15 00:25:00,
2013-03-14 20:30:00,35.3,24.0,30.25,WNW,288,0.0,1.0,63,0.00,,,0.00,Wunderground v.1.15,2013-03-15 00:30:00,
2013-03-14 20:40:00,34.7,24.1,30.26,WNW,288,0.0,0.0,65,0.00,,,0.00,Wunderground v.1.15,2013-03-15 00:40:00,
2013-03-14 20:50:00,34.1,23.9,30.26,WNW,288,0.0,0.0,66,0.00,,,0.00,Wunderground v.1.15,2013-03-15 00:50:00,
2013-03-14 21:00:00,34.0,23.8,30.26,WNW,288,0.0,0.0,66,0.00,,,0.00,Wunderground v.1.15,2013-03-15 01:00:00,
2013-03-14 21:05:00,33.7,23.9,30.26,WNW,288,0.0,1.0,67,0.00,,,0.00,Wunderground v.1.15,2013-03-15 01:05:00,
2013-03-14 21:15:00,32.8,23.4,30.26,WNW,288,0.0,1.0,68,0.00,,,0.00,Wunderground v.1.15,2013-03-15 01:15:00,
2013-03-14 21:20:00,32.5,23.8,30.27,WNW,288,0.0,0.0,70,0.00,,,0.00,Wunderground v.1.15,2013-03-15 01:20:00,
2013-03-14 21:30:00,31.8,23.8,30.27,WNW,288,0.0,0.0,72,0.00,,,0.00,Wunderground v.1.15,2013-03-15 01:30:00,
2013-03-14 21:40:00,31.7,23.0,30.27,WNW,288,0.0,0.0,70,0.00,,,0.00,Wunderground v.1.15,2013-03-15 01:40:00,
2013-03-14 21:45:00,31.6,23.3,30.27,WNW,288,0.0,1.0,71,0.00,,,0.00,Wunderground v.1.15,2013-03-15 01:45:00,
2013-03-14 21:55:00,31.3,24.0,30.27,WNW,294,1.0,1.0,74,0.00,,,0.00,Wunderground v.1.15,2013-03-15 01:55:00,
2013-03-14 22:05:00,31.0,23.7,30.28,WNW,294,0.0,1.0,74,0.00,,,0.00,Wunderground v.1.15,2013-03-15 02:05:00,
2013-03-14 22:10:00,31.0,24.0,30.28,WNW,294,0.0,1.0,75,0.00,,,0.00,Wunderground v.1.15,2013-03-15 02:10:00,
2013-03-14 22:20:00,30.7,23.4,30.28,WNW,294,0.0,0.0,74,0.00,,,0.00,Wunderground v.1.15,2013-03-15 02:20:00,
2013-03-14 22:30:00,30.8,23.2,30.28,WNW,294,0.0,0.0,73,0.00,,,0.00,Wunderground v.1.15,2013-03-15 02:30:00,
2013-03-14 22:35:00,30.8,23.5,30.28,WNW,294,0.0,0.0,74,0.00,,,0.00,Wunderground v.1.15,2013-03-15 02:35:00,
2013-03-14 22:45:00,31.0,23.4,30.28,WNW,294,0.0,1.0,73,0.00,,,0.00,Wunderground v.1.15,2013-03-15 02:45:00,
2013-03-14 22:55:00,31.5,23.5,30.28,WNW,293,1.0,1.0,72,0.00,,,0.00,Wunderground v.1.15,2013-03-15 02:55:00,
2013-03-14 23:00:00,31.4,23.7,30.28,WNW,294,1.0,1.0,73,0.00,,,0.00,Wunderground v.1.15,2013-03-15 03:00:00,
2013-03-14 23:10:00,31.7,24.4,30.28,WNW,294,0.0,1.0,74,0.00,,,0.00,Wunderground v.1.15,2013-03-15 03:10:00,
2013-03-14 23:15:00,31.4,24.1,30.29,WNW,294,0.0,1.0,74,0.00,,,0.00,Wunderground v.1.15,2013-03-15 03:15:00,
2013-03-14 23:25:00,30.8,23.2,30.29,WNW,294,0.0,1.0,73,0.00,,,0.00,Wunderground v.1.15,2013-03-15 03:25:00,
2013-03-14 23:35:00,30.5,23.8,30.29,WNW,296,1.0,1.0,76,0.00,,,0.00,Wunderground v.1.15,2013-03-15 03:35:00,
2013-03-14 23:45:00,30.2,23.5,30.29,WNW,296,1.0,1.0,76,0.00,,,0.00,Wunderground v.1.15,2013-03-15 03:45:00,
2013-03-14 23:50:00,30.1,23.4,30.29,WNW,299,1.0,1.0,76,0.00,,,0.00,Wunderground v.1.15,2013-03-15 03:50:00,